Souda — SVBH5 — position and weather

sailwx.info

Track history (hours):
 
Tides and Currents Weather Stations Pressure Air Temp Water Temp Dewpoint Dewpoint Depression Visibility Wind Speed Wind Dir Waves Ship Positions

Souda

Last reported at 2016-Jul-27 20:33 UTC. Time now 2016-Jul-27 21:05 UTC.
Position N 37°44' E 023°44'.

Length 88 m; draft 4.6 m.

Type: Tanker. MMSI: 241109000.

Date/timePositionNaut miles runAvg speedWind from/ knotsBaromVisibWave heightAir tempDewpointWater temp
2016-Jul-27 20:33N 37°44' E 023°44'9 9.3
2016-Jul-27 19:33N 37°36' E 023°50'12 9.8
2016-Jul-27 18:22N 37°28' E 023°60'  
2016-Jul-24 20:33N 37°25' E 024°02'12 9.4
2016-Jul-24 19:16N 37°34' E 023°52'7 9.4
2016-Jul-24 18:33N 37°38' E 023°45'9 8.9
2016-Jul-24 17:33N 37°45' E 023°39'8 7.9
2016-Jul-24 16:33N 37°50' E 023°31'9 9.0
2016-Jul-24 15:33N 37°52' E 023°19'10 9.2
2016-Jul-24 14:31N 37°54' E 023°08'2 0.1
2016-Jul-23 21:33N 37°55' E 023°05'1 0.6
2016-Jul-23 20:30N 37°55' E 023°06'0 0.0
2016-Jul-23 19:33N 37°55' E 023°06'0 0.0
2016-Jul-23 18:33N 37°55' E 023°06'0 0.1
2016-Jul-23 17:33N 37°55' E 023°06'0 0.0
2016-Jul-23 16:33N 37°55' E 023°06'0 0.0
2016-Jul-23 15:33N 37°55' E 023°06'0 0.0
2016-Jul-23 14:30N 37°55' E 023°06'0 0.0
2016-Jul-23 13:30N 37°55' E 023°06'0 0.0
2016-Jul-23 12:15N 37°55' E 023°06'0 0.0
2016-Jul-23 11:30N 37°55' E 023°06'2 2.1
2016-Jul-23 10:34N 37°54' E 023°08'1010.0
2016-Jul-23 09:34N 37°51' E 023°20'10 9.5
2016-Jul-23 08:33N 37°50' E 023°32'7 7.3
2016-Jul-23 07:33N 37°57' E 023°35'0 0.1
2016-Jul-23 06:30N 37°57' E 023°35'0 0.0
2016-Jul-23 04:33N 37°57' E 023°35'0 0.0
2016-Jul-23 03:33N 37°57' E 023°35'0 0.0
2016-Jul-23 02:33N 37°57' E 023°35'0 0.0
2016-Jul-23 01:33N 37°57' E 023°35'0 0.0
2016-Jul-23 00:33N 37°57' E 023°35'0 0.0
2016-Jul-22 23:30N 37°57' E 023°35'0 0.0
2016-Jul-22 22:33N 37°57' E 023°35'0 0.0
2016-Jul-22 21:33N 37°57' E 023°35'0 0.0
2016-Jul-22 20:33N 37°57' E 023°35'0 0.0
2016-Jul-22 19:33N 37°57' E 023°35'0 0.0
2016-Jul-22 18:30N 37°57' E 023°35'0 0.0
2016-Jul-22 17:33N 37°57' E 023°35'0 0.0
2016-Jul-22 16:33N 37°57' E 023°35'0 0.0
2016-Jul-22 15:33N 37°57' E 023°35'0 0.0
2016-Jul-22 14:27N 37°57' E 023°35'0 0.0
2016-Jul-22 13:30N 37°57' E 023°35'0 0.0
2016-Jul-22 12:33N 37°57' E 023°35'0 0.0
2016-Jul-22 11:33N 37°57' E 023°35'0 0.0
2016-Jul-22 10:33N 37°57' E 023°35'0 0.0
2016-Jul-22 09:33N 37°57' E 023°35'0 0.0
2016-Jul-22 08:33N 37°57' E 023°35'0 0.0
2016-Jul-22 07:33N 37°57' E 023°35'0 0.0
2016-Jul-22 04:33N 37°57' E 023°35'0 0.0
2016-Jul-22 03:33N 37°57' E 023°35'0 0.0
2016-Jul-22 02:33N 37°57' E 023°35'0 0.0
2016-Jul-22 01:30N 37°57' E 023°35'0 0.0
2016-Jul-22 00:33N 37°57' E 023°35'0 0.0
2016-Jul-21 23:30N 37°57' E 023°35'0 0.0
2016-Jul-21 22:33N 37°57' E 023°35'0 0.0
2016-Jul-21 21:33N 37°57' E 023°35'0 0.0
2016-Jul-21 20:33N 37°57' E 023°35'0 0.0
2016-Jul-21 19:33N 37°57' E 023°35'0 0.0
2016-Jul-21 18:33N 37°57' E 023°35'0 0.0
2016-Jul-21 17:30N 37°57' E 023°35'0 0.0
2016-Jul-21 16:29N 37°57' E 023°35'0 0.0
2016-Jul-21 15:33N 37°57' E 023°35'0 0.0
2016-Jul-21 14:33N 37°57' E 023°35'0 0.0
2016-Jul-21 13:33N 37°57' E 023°35'0 0.0
2016-Jul-21 12:33N 37°57' E 023°35'0 0.0
2016-Jul-21 11:33N 37°57' E 023°35'0 0.0
2016-Jul-21 10:21N 37°57' E 023°35'0 0.0
2016-Jul-21 09:33N 37°57' E 023°35'0 0.0
2016-Jul-21 08:32N 37°57' E 023°35'0 0.0
2016-Jul-21 07:30N 37°57' E 023°35'0 0.0
2016-Jul-21 06:33N 37°57' E 023°35'2 2.3
2016-Jul-21 05:33N 37°55' E 023°34'1 1.2
2016-Jul-21 04:32N 37°54' E 023°34'0 0.0
2016-Jul-21 03:32N 37°54' E 023°34'0 0.0
2016-Jul-21 02:32N 37°54' E 023°34'0 0.0
2016-Jul-21 01:32N 37°54' E 023°34'0 0.0
2016-Jul-21 00:32N 37°54' E 023°34'0 0.0
2016-Jul-20 23:32N 37°54' E 023°34'0 0.0
2016-Jul-20 22:32N 37°54' E 023°34'0 0.0
2016-Jul-20 21:32N 37°54' E 023°34'0 0.0
2016-Jul-20 20:32N 37°54' E 023°34'1 0.6
2016-Jul-20 19:33N 37°54' E 023°34'5 5.4
2016-Jul-20 18:33N 37°50' E 023°30'9 9.0
2016-Jul-20 17:33N 37°51' E 023°18'9 9.2
2016-Jul-20 16:33N 37°54' E 023°07'2 0.1
2016-Jul-19 19:22N 37°55' E 023°05'1 1.0
2016-Jul-19 18:33N 37°54' E 023°05'0 0.1
2016-Jul-19 17:32N 37°54' E 023°05'0 0.0
2016-Jul-19 16:26N 37°54' E 023°05'0 0.0
2016-Jul-19 15:17N 37°54' E 023°04'0 0.0
2016-Jul-19 14:26N 37°54' E 023°05'0 0.0
2016-Jul-19 13:32N 37°54' E 023°05'0 0.0
2016-Jul-19 12:32N 37°54' E 023°05'0 0.0
2016-Jul-19 11:32N 37°54' E 023°05'0 0.0
2016-Jul-19 10:32N 37°54' E 023°05'0 0.0
2016-Jul-19 09:29N 37°54' E 023°05'0 0.0
2016-Jul-19 08:31N 37°54' E 023°05'0 0.0
2016-Jul-19 07:32N 37°54' E 023°05'0 0.0
2016-Jul-19 04:29N 37°54' E 023°05'0 0.0
2016-Jul-19 03:32N 37°54' E 023°05'0 0.1
2016-Jul-19 02:29N 37°54' E 023°05'0 0.0
2016-Jul-19 01:23N 37°54' E 023°05'0 0.0
2016-Jul-19 00:32N 37°54' E 023°05'0 0.0
2016-Jul-18 23:32N 37°54' E 023°05'0 0.0
2016-Jul-18 22:29N 37°54' E 023°05'0 0.0
2016-Jul-18 21:32N 37°54' E 023°05'0 0.0
2016-Jul-18 20:07N 37°54' E 023°05'0 0.0
2016-Jul-18 18:32N 37°54' E 023°05'0 0.0
2016-Jul-18 17:17N 37°54' E 023°05'0 0.0
2016-Jul-18 15:13N 37°54' E 023°05'0 0.0
2016-Jul-18 14:13N 37°54' E 023°05'0 0.1
2016-Jul-18 13:19N 37°54' E 023°05'0 0.0
2016-Jul-18 12:31N 37°54' E 023°05'0 0.0
2016-Jul-18 10:28N 37°54' E 023°05'0 0.0
2016-Jul-18 09:32N 37°54' E 023°05'0 0.0
2016-Jul-18 08:32N 37°54' E 023°05'0 0.0
2016-Jul-18 07:31N 37°54' E 023°05'0 0.0
2016-Jul-18 06:16N 37°54' E 023°05'0 0.0
2016-Jul-18 05:26N 37°54' E 023°05'0 0.0
2016-Jul-18 04:25N 37°54' E 023°05'0 0.0
2016-Jul-18 03:13N 37°54' E 023°05'0 0.0
2016-Jul-18 02:28N 37°54' E 023°05'0 0.0
2016-Jul-18 01:31N 37°54' E 023°05'0 0.0
2016-Jul-17 21:31N 37°54' E 023°05'  
Track history (hours):
 
Tides and Currents Weather Stations Pressure Air Temp Water Temp Dewpoint Dewpoint Depression Visibility Wind Speed Wind Dir Waves Ship Positions

Souda

Last reported at 2016-Jul-27 20:33 UTC. Time now 2016-Jul-27 21:05 UTC.
Position N 37°44' E 023°44'.

Length 88 m; draft 4.6 m.

Type: Tanker. MMSI: 241109000.

Date/timePositionNaut miles runAvg speedWind from/ knotsBaromVisibWave heightAir tempDewpointWater temp
2016-Jul-27 20:33N 37°44' E 023°44'9 9.3
2016-Jul-27 19:33N 37°36' E 023°50'12 9.8
2016-Jul-27 18:22N 37°28' E 023°60'  
2016-Jul-24 20:33N 37°25' E 024°02'12 9.4
2016-Jul-24 19:16N 37°34' E 023°52'7 9.4
2016-Jul-24 18:33N 37°38' E 023°45'9 8.9
2016-Jul-24 17:33N 37°45' E 023°39'8 7.9
2016-Jul-24 16:33N 37°50' E 023°31'9 9.0
2016-Jul-24 15:33N 37°52' E 023°19'10 9.2
2016-Jul-24 14:31N 37°54' E 023°08'2 0.1
2016-Jul-23 21:33N 37°55' E 023°05'1 0.6
2016-Jul-23 20:30N 37°55' E 023°06'0 0.0
2016-Jul-23 19:33N 37°55' E 023°06'0 0.0
2016-Jul-23 18:33N 37°55' E 023°06'0 0.1
2016-Jul-23 17:33N 37°55' E 023°06'0 0.0
2016-Jul-23 16:33N 37°55' E 023°06'0 0.0
2016-Jul-23 15:33N 37°55' E 023°06'0 0.0
2016-Jul-23 14:30N 37°55' E 023°06'0 0.0
2016-Jul-23 13:30N 37°55' E 023°06'0 0.0
2016-Jul-23 12:15N 37°55' E 023°06'0 0.0
2016-Jul-23 11:30N 37°55' E 023°06'2 2.1
2016-Jul-23 10:34N 37°54' E 023°08'1010.0
2016-Jul-23 09:34N 37°51' E 023°20'10 9.5
2016-Jul-23 08:33N 37°50' E 023°32'7 7.3
2016-Jul-23 07:33N 37°57' E 023°35'0 0.1
2016-Jul-23 06:30N 37°57' E 023°35'0 0.0
2016-Jul-23 04:33N 37°57' E 023°35'0 0.0
2016-Jul-23 03:33N 37°57' E 023°35'0 0.0
2016-Jul-23 02:33N 37°57' E 023°35'0 0.0
2016-Jul-23 01:33N 37°57' E 023°35'0 0.0
2016-Jul-23 00:33N 37°57' E 023°35'0 0.0
2016-Jul-22 23:30N 37°57' E 023°35'0 0.0
2016-Jul-22 22:33N 37°57' E 023°35'0 0.0
2016-Jul-22 21:33N 37°57' E 023°35'0 0.0
2016-Jul-22 20:33N 37°57' E 023°35'0 0.0
2016-Jul-22 19:33N 37°57' E 023°35'0 0.0
2016-Jul-22 18:30N 37°57' E 023°35'0 0.0
2016-Jul-22 17:33N 37°57' E 023°35'0 0.0
2016-Jul-22 16:33N 37°57' E 023°35'0 0.0
2016-Jul-22 15:33N 37°57' E 023°35'0 0.0
2016-Jul-22 14:27N 37°57' E 023°35'0 0.0
2016-Jul-22 13:30N 37°57' E 023°35'0 0.0
2016-Jul-22 12:33N 37°57' E 023°35'0 0.0
2016-Jul-22 11:33N 37°57' E 023°35'0 0.0
2016-Jul-22 10:33N 37°57' E 023°35'0 0.0
2016-Jul-22 09:33N 37°57' E 023°35'0 0.0
2016-Jul-22 08:33N 37°57' E 023°35'0 0.0
2016-Jul-22 07:33N 37°57' E 023°35'0 0.0
2016-Jul-22 04:33N 37°57' E 023°35'0 0.0
2016-Jul-22 03:33N 37°57' E 023°35'0 0.0
2016-Jul-22 02:33N 37°57' E 023°35'0 0.0
2016-Jul-22 01:30N 37°57' E 023°35'0 0.0
2016-Jul-22 00:33N 37°57' E 023°35'0 0.0
2016-Jul-21 23:30N 37°57' E 023°35'0 0.0
2016-Jul-21 22:33N 37°57' E 023°35'0 0.0
2016-Jul-21 21:33N 37°57' E 023°35'0 0.0
2016-Jul-21 20:33N 37°57' E 023°35'0 0.0
2016-Jul-21 19:33N 37°57' E 023°35'0 0.0
2016-Jul-21 18:33N 37°57' E 023°35'0 0.0
2016-Jul-21 17:30N 37°57' E 023°35'0 0.0
2016-Jul-21 16:29N 37°57' E 023°35'0 0.0
2016-Jul-21 15:33N 37°57' E 023°35'0 0.0
2016-Jul-21 14:33N 37°57' E 023°35'0 0.0
2016-Jul-21 13:33N 37°57' E 023°35'0 0.0
2016-Jul-21 12:33N 37°57' E 023°35'0 0.0
2016-Jul-21 11:33N 37°57' E 023°35'0 0.0
2016-Jul-21 10:21N 37°57' E 023°35'0 0.0
2016-Jul-21 09:33N 37°57' E 023°35'0 0.0
2016-Jul-21 08:32N 37°57' E 023°35'0 0.0
2016-Jul-21 07:30N 37°57' E 023°35'0 0.0
2016-Jul-21 06:33N 37°57' E 023°35'2 2.3
2016-Jul-21 05:33N 37°55' E 023°34'1 1.2
2016-Jul-21 04:32N 37°54' E 023°34'0 0.0
2016-Jul-21 03:32N 37°54' E 023°34'0 0.0
2016-Jul-21 02:32N 37°54' E 023°34'0 0.0
2016-Jul-21 01:32N 37°54' E 023°34'0 0.0
2016-Jul-21 00:32N 37°54' E 023°34'0 0.0
2016-Jul-20 23:32N 37°54' E 023°34'0 0.0
2016-Jul-20 22:32N 37°54' E 023°34'0 0.0
2016-Jul-20 21:32N 37°54' E 023°34'0 0.0
2016-Jul-20 20:32N 37°54' E 023°34'1 0.6
2016-Jul-20 19:33N 37°54' E 023°34'5 5.4
2016-Jul-20 18:33N 37°50' E 023°30'9 9.0
2016-Jul-20 17:33N 37°51' E 023°18'9 9.2
2016-Jul-20 16:33N 37°54' E 023°07'2 0.1
2016-Jul-19 19:22N 37°55' E 023°05'1 1.0
2016-Jul-19 18:33N 37°54' E 023°05'0 0.1
2016-Jul-19 17:32N 37°54' E 023°05'0 0.0
2016-Jul-19 16:26N 37°54' E 023°05'0 0.0
2016-Jul-19 15:17N 37°54' E 023°04'0 0.0
2016-Jul-19 14:26N 37°54' E 023°05'0 0.0
2016-Jul-19 13:32N 37°54' E 023°05'0 0.0
2016-Jul-19 12:32N 37°54' E 023°05'0 0.0
2016-Jul-19 11:32N 37°54' E 023°05'0 0.0
2016-Jul-19 10:32N 37°54' E 023°05'0 0.0
2016-Jul-19 09:29N 37°54' E 023°05'0 0.0
2016-Jul-19 08:31N 37°54' E 023°05'0 0.0
2016-Jul-19 07:32N 37°54' E 023°05'0 0.0
2016-Jul-19 04:29N 37°54' E 023°05'0 0.0
2016-Jul-19 03:32N 37°54' E 023°05'0 0.1
2016-Jul-19 02:29N 37°54' E 023°05'0 0.0
2016-Jul-19 01:23N 37°54' E 023°05'0 0.0
2016-Jul-19 00:32N 37°54' E 023°05'0 0.0
2016-Jul-18 23:32N 37°54' E 023°05'0 0.0
2016-Jul-18 22:29N 37°54' E 023°05'0 0.0
2016-Jul-18 21:32N 37°54' E 023°05'0 0.0
2016-Jul-18 20:07N 37°54' E 023°05'0 0.0
2016-Jul-18 18:32N 37°54' E 023°05'0 0.0
2016-Jul-18 17:17N 37°54' E 023°05'0 0.0
2016-Jul-18 15:13N 37°54' E 023°05'0 0.0
2016-Jul-18 14:13N 37°54' E 023°05'0 0.1
2016-Jul-18 13:19N 37°54' E 023°05'0 0.0
2016-Jul-18 12:31N 37°54' E 023°05'0 0.0
2016-Jul-18 10:28N 37°54' E 023°05'0 0.0
2016-Jul-18 09:32N 37°54' E 023°05'0 0.0
2016-Jul-18 08:32N 37°54' E 023°05'0 0.0
2016-Jul-18 07:31N 37°54' E 023°05'0 0.0
2016-Jul-18 06:16N 37°54' E 023°05'0 0.0
2016-Jul-18 05:26N 37°54' E 023°05'0 0.0
2016-Jul-18 04:25N 37°54' E 023°05'0 0.0
2016-Jul-18 03:13N 37°54' E 023°05'0 0.0
2016-Jul-18 02:28N 37°54' E 023°05'0 0.0
2016-Jul-18 01:31N 37°54' E 023°05'0 0.0
2016-Jul-17 21:31N 37°54' E 023°05'  

Dump ship's entire track history